Latest Weather Observations for Holsworthy (Defence)

IDN60801

Issued at 10:42 pm EST Sunday 21 July 2019 (issued every 10 minutes, with the page automatically refreshed every 10 minutes)

About weather observations | Map of weather stations | Latest weather observations for NSW | Other Formats
Station Details ID: 068263 Name: HOLSWORTHY DEFENCE AWS Lat: -34.08 Lon: 150.90 Height: 165.0 m
Data from the previous 72 hours. | See also: Recent months at Holsworthy (Defence)
Date/Time
EST
Temp
°C
App
Temp
°C
Dew
Point
°C
Rel
Hum
%
Delta-T
°C
Wind Press
QNH
hPa
Press
MSL
hPa
Rain since
9am
mm
Dir  Spd
km/h
Gust
km/h
Spd
kts
Gust
kts
21/10:30pm 10.3 7.6 2.7 59 3.3 SSE 6 9 3 5 - - 0.0
21/10:00pm 10.0 7.2 2.1 58 3.4 S 6 7 3 4 - - 0.0
21/09:30pm 10.3 7.2 1.2 53 3.8 S 7 11 4 6 - - 0.0
21/09:00pm 12.2 9.6 1.2 47 4.7 SE 4 6 2 3 - - 0.0
21/08:30pm 11.8 9.2 0.9 47 4.6 SSW 4 7 2 4 - - 0.0
21/08:00pm 11.9 8.9 0.7 46 4.7 S 6 9 3 5 - - 0.0
21/07:30pm 14.3 11.5 -0.2 37 6.1 SW 4 6 2 3 - - 0.0
21/07:00pm 15.0 11.3 -0.3 35 6.5 W 9 13 5 7 - - 0.0
21/06:30pm 15.9 12.5 -0.3 33 6.9 WNW 7 13 4 7 - - 0.0
21/06:00pm 16.8 13.0 -0.4 31 7.4 NW 9 13 5 7 - - 0.0
21/05:30pm 17.4 14.3 0.1 31 7.5 NNW 6 9 3 5 - - 0.0
21/05:00pm 18.0 15.0 1.1 32 7.6 N 6 11 3 6 - - 0.0
21/04:30pm 19.8 16.8 1.7 30 8.3 NNW 7 9 4 5 - - 0.0
21/04:00pm 21.1 17.2 1.4 27 9.1 NW 11 19 6 10 - - 0.0
21/03:30pm 21.6 17.0 1.3 26 9.4 NW 15 24 8 13 - - 0.0
21/03:00pm 22.3 18.4 1.3 25 9.8 NW 11 24 6 13 - - 0.0
21/02:30pm 22.0 16.6 1.1 25 9.7 NW 19 30 10 16 - - 0.0
21/02:00pm 22.4 17.5 2.0 26 9.6 WNW 17 33 9 18 - - 0.0
21/01:30pm 21.9 17.9 2.6 28 9.2 NW 13 24 7 13 - - 0.0
21/01:00pm 21.5 18.1 4.1 32 8.5 NW 11 19 6 10 - - 0.0
21/12:30pm 20.6 18.2 4.2 34 8.0 NW 6 9 3 5 - - 0.0
21/12:00pm 19.1 17.0 3.7 36 7.3 NNW 4 7 2 4 - - 0.0
21/11:30am 18.4 16.2 3.1 36 7.2 NNE 4 9 2 5 - - 0.0
21/11:00am 16.2 14.3 2.9 41 6.1 NW 2 6 1 3 - - 0.0
21/10:30am 15.0 12.8 3.5 46 5.3 WNW 4 7 2 4 - - 0.0
21/10:00am 13.4 11.1 2.9 49 4.7 WNW 4 7 2 4 - - 0.0
21/09:30am 12.5 10.2 2.9 52 4.3 WNW 4 6 2 3 - - 0.0
21/09:00am 11.7 9.0 2.5 53 4.0 NW 6 9 3 5 - - 0.0
21/08:30am 10.6 8.4 3.2 60 3.3 N 4 6 2 3 - - 0.0
21/08:00am 5.8 4.5 4.3 90 0.6 CALM 0 0 0 0 - - 0.0
21/07:30am 3.9 1.3 3.2 95 0.3 SSE 6 7 3 4 - - 0.0
21/07:00am 3.7 1.1 3.0 95 0.3 SSE 6 9 3 5 - - 0.0
21/06:30am 3.7 1.1 3.1 96 0.2 S 6 7 3 4 - - 0.0
21/06:00am 3.4 0.7 2.8 96 0.2 S 6 7 3 4 - - 0.0
21/05:30am 3.0 0.0 2.1 94 0.4 S 7 11 4 6 - - 0.0
21/05:00am 3.9 1.3 3.3 96 0.2 SSE 6 9 3 5 - - 0.0
21/04:30am 3.6 0.9 2.7 94 0.4 S 6 9 3 5 - - 0.0
21/04:00am 4.6 3.3 3.9 95 0.3 CALM 0 4 0 2 - - 0.0
21/03:30am 4.1 1.3 3.1 93 0.4 S 7 9 4 5 - - 0.0
21/03:00am 4.7 2.1 3.2 90 0.6 S 6 6 3 3 - - 0.0
21/02:30am 5.3 3.9 3.5 88 0.8 CALM 0 4 0 2 - - 0.0
21/02:00am 6.0 4.4 4.5 90 0.7 ESE 2 2 1 1 - - 0.0
21/01:30am 5.8 4.2 4.4 91 0.6 SSE 2 4 1 2 - - 0.0
21/01:00am 5.7 3.7 4.2 90 0.6 SSE 4 6 2 3 - - 0.0
21/12:30am 6.0 3.9 4.0 87 0.9 SSE 4 6 2 3 - - 0.0
21/12:00am 6.5 4.9 4.5 87 0.9 SSE 2 4 1 2 - - 0.0
 
Date/Time
EST
Temp
°C
App
Temp
°C
Dew
Point
°C
Rel
Hum
%
Delta-T
°C
Wind Press
QNH
hPa
Press
MSL
hPa
Rain since
9am
mm
Dir  Spd
km/h
Gust
km/h
Spd
kts
Gust
kts
20/11:30pm 7.1 5.1 4.6 84 1.1 SSE 4 6 2 3 - - 0.0
20/11:00pm 7.9 6.5 5.4 84 1.1 E 2 4 1 2 - - 0.0
20/10:30pm 7.7 5.9 5.5 86 1.0 N 4 6 2 3 - - 0.0
20/10:00pm 7.6 5.8 5.4 86 1.0 SSE 4 4 2 2 - - 0.0
20/09:30pm 8.1 6.3 5.2 82 1.3 SSE 4 6 2 3 - - 0.0
20/09:00pm 9.8 8.0 5.6 75 1.9 E 4 6 2 3 - - 0.0
20/08:30pm 11.8 10.2 6.5 70 2.5 NE 4 7 2 4 - - 0.0
20/08:00pm 11.9 9.9 6.4 69 2.6 ENE 6 9 3 5 - - 0.0
20/07:30pm 12.2 10.1 6.7 69 2.6 ENE 7 13 4 7 - - 0.0
20/07:00pm 12.5 10.7 7.2 70 2.6 NE 6 13 3 7 - - 0.0
20/06:30pm 11.0 9.1 4.7 65 2.9 NE 4 7 2 4 - - 0.0
20/06:00pm 11.7 9.8 4.9 63 3.1 NNE 4 6 2 3 - - 0.0
20/05:30pm 13.5 12.1 5.4 58 3.8 SSE 2 4 1 2 - - 0.0
20/05:00pm 15.4 13.4 4.5 48 5.1 NNE 4 6 2 3 - - 0.0
20/04:30pm 16.9 15.0 4.9 45 5.8 N 4 6 2 3 - - 0.0
20/04:00pm 18.3 16.0 4.8 41 6.5 N 6 11 3 6 - - 0.0
20/03:30pm 18.7 16.4 4.8 40 6.7 NNW 6 9 3 5 - - 0.0
20/03:00pm 19.0 16.8 5.5 41 6.7 N 6 9 3 5 - - 0.0
20/02:30pm 18.1 14.7 3.9 39 6.7 N 11 19 6 10 - - 0.0
20/02:00pm 17.8 14.4 4.0 40 6.5 N 11 20 6 11 - - 0.0
20/01:30pm 17.8 14.8 4.0 40 6.5 N 9 19 5 10 - - 0.0
20/01:00pm 17.5 13.8 4.5 42 6.2 N 13 20 7 11 - - 0.0
20/12:30pm 17.2 14.2 4.2 42 6.2 NNW 9 17 5 9 - - 0.0
20/12:00pm 16.2 13.6 4.3 45 5.6 NW 7 15 4 8 - - 0.0
20/11:30am 16.0 13.6 5.3 49 5.1 NW 7 15 4 8 - - 0.0
20/11:00am 15.1 12.3 5.0 51 4.8 NW 9 13 5 7 - - 0.0
20/10:30am 14.3 12.0 4.9 53 4.4 NW 6 11 3 6 - - 0.0
20/10:00am 13.1 10.8 4.8 57 3.9 WNW 6 9 3 5 - - 0.0
20/09:30am 12.2 10.4 5.6 64 3.1 WNW 4 6 2 3 - - 0.0
20/09:00am 9.6 7.6 4.6 71 2.2 W 4 6 2 3 - - 0.0
20/08:30am 7.8 5.8 4.4 79 1.5 SW 4 6 2 3 - - 0.0
20/08:00am 5.8 3.4 4.1 89 0.7 SSW 6 7 3 4 - - 0.0
20/07:30am 4.0 1.2 3.4 96 0.2 S 7 9 4 5 - - 0.0
20/07:00am 3.6 0.9 2.9 95 0.3 S 6 9 3 5 - - 0.0
20/06:30am 3.9 1.1 3.0 94 0.4 SSE 7 7 4 4 - - 0.0
20/06:00am 4.0 1.2 3.0 93 0.4 S 7 7 4 4 - - 0.0
20/05:30am 4.6 1.9 2.9 89 0.7 S 6 7 3 4 - - 0.0
20/05:00am 4.8 2.1 3.6 92 0.5 S 7 9 4 5 - - 0.0
20/04:30am 4.5 1.8 3.5 93 0.4 S 7 9 4 5 - - 0.0
20/04:00am 4.4 1.8 3.4 93 0.4 S 6 7 3 4 - - 0.0
20/03:30am 4.2 1.6 3.2 93 0.4 SSE 6 9 3 5 - - 0.0
20/03:00am 4.2 1.4 2.9 91 0.5 S 7 9 4 5 - - 0.0
20/02:30am 4.8 2.1 3.6 92 0.5 SSE 7 9 4 5 - - 0.0
20/02:00am 4.9 2.1 3.4 90 0.6 SSE 7 9 4 5 - - 0.0
20/01:30am 5.5 2.8 3.8 89 0.7 S 7 9 4 5 - - 0.0
20/01:00am 5.8 3.2 4.1 89 0.7 S 7 9 4 5 - - 0.0
20/12:30am 5.7 3.2 3.9 88 0.8 S 6 7 3 4 - - 0.0
20/12:00am 6.0 3.4 4.2 88 0.8 S 7 9 4 5 - - 0.0
 
Date/Time
EST
Temp
°C
App
Temp
°C
Dew
Point
°C
Rel
Hum
%
Delta-T
°C
Wind Press
QNH
hPa
Press
MSL
hPa
Rain since
9am
mm
Dir  Spd
km/h
Gust
km/h
Spd
kts
Gust
kts
19/11:30pm 6.0 3.4 4.0 87 0.9 S 7 9 4 5 - - 0.0
19/11:00pm 6.1 3.7 4.3 88 0.8 S 6 7 3 4 - - 0.0
19/10:30pm 6.6 4.2 4.4 86 1.0 S 6 6 3 3 - - 0.0
19/10:00pm 6.8 4.4 4.5 85 1.0 S 6 7 3 4 - - 0.0
19/09:30pm 7.3 4.9 4.4 82 1.3 SSE 6 7 3 4 - - 0.0
19/09:00pm 8.4 6.2 5.2 80 1.4 SSE 6 6 3 3 - - 0.0
19/08:30pm 8.5 6.6 5.1 79 1.5 S 4 6 2 3 - - 0.0
19/08:00pm 9.5 7.3 5.5 76 1.8 S 6 7 3 4 - - 0.0
19/07:30pm 10.0 7.9 6.0 76 1.9 S 6 7 3 4 - - 0.0
19/07:00pm 9.7 7.6 5.9 77 1.8 SW 6 13 3 7 - - 0.0
19/06:30pm 10.2 8.1 5.6 73 2.1 S 6 6 3 3 - - 0.0
19/06:00pm 11.5 9.8 5.8 68 2.7 S 4 6 2 3 - - 0.0
19/05:30pm 13.8 11.5 5.9 59 3.8 SE 7 13 4 7 - - 0.0
19/05:00pm 14.8 13.2 4.5 50 4.8 WSW 2 2 1 1 - - 0.0
19/04:30pm 17.1 14.7 4.1 42 6.1 W 6 9 3 5 - - 0.0
19/04:00pm 18.7 16.7 4.5 39 6.8 WNW 4 7 2 4 - - 0.0
19/03:30pm 18.6 16.0 4.4 39 6.8 WNW 7 13 4 7 - - 0.0
19/03:00pm 19.2 16.7 4.9 39 7.0 NW 7 11 4 6 - - 0.0
19/02:30pm 19.0 16.5 4.7 39 6.9 W 7 13 4 7 - - 0.0
19/02:00pm 19.2 16.9 4.9 39 7.0 W 6 13 3 7 - - 0.0
19/01:30pm 18.1 15.1 3.9 39 6.7 WSW 9 17 5 9 - - 0.0
19/01:00pm 17.5 14.2 4.5 42 6.2 WSW 11 20 6 11 - - 0.0
19/12:30pm 17.5 13.5 4.8 43 6.1 W 15 26 8 14 - - 0.0
19/12:00pm 16.7 13.1 5.0 46 5.6 WSW 13 26 7 14 - - 0.0
19/11:30am 16.5 13.6 4.9 46 5.6 WSW 9 17 5 9 - - 0.0
19/11:00am 15.2 10.3 4.3 48 5.1 WSW 19 32 10 17 - - 0.0
19/10:30am 14.5 10.7 3.9 49 4.9 WSW 13 26 7 14 - - 0.0
19/10:00am 13.3 8.7 3.7 52 4.4 SW 17 30 9 16 - - 0.0
19/09:30am 12.3 7.6 3.3 54 4.0 SW 17 26 9 14 - - 0.0
19/09:00am 11.2 6.8 2.8 56 3.7 WSW 15 24 8 13 - - 0.0
19/08:30am 9.8 5.3 2.4 60 3.2 SW 15 30 8 16 - - 0.0
19/08:00am 7.4 3.6 1.5 66 2.4 WSW 11 17 6 9 - - 0.0
19/07:30am 5.2 2.0 0.6 72 1.8 WSW 7 9 4 5 - - 0.0
19/07:00am 5.0 1.7 0.4 72 1.8 SW 7 11 4 6 - - 0.0
19/06:30am 5.6 2.3 0.4 69 2.0 SW 7 11 4 6 - - 0.0
19/06:00am 5.5 1.5 0.5 70 2.0 WSW 11 19 6 10 - - 0.0
19/05:30am 4.8 0.8 0.8 75 1.6 WSW 11 15 6 8 - - 0.0
19/05:00am 3.8 0.5 0.3 78 1.3 W 7 11 4 6 - - 0.0
19/04:30am 3.4 0.1 0.1 79 1.2 W 7 13 4 7 - - 0.0
19/04:00am 4.4 1.1 0.2 74 1.6 NW 7 11 4 6 - - 0.0
19/03:30am 4.6 1.3 0.4 74 1.6 WNW 7 11 4 6 - - 0.0
19/03:00am 4.9 1.3 0.3 72 1.8 WNW 9 11 5 6 - - 0.0
19/02:30am 5.3 1.3 0.5 71 1.9 W 11 15 6 8 - - 0.0
19/02:00am 5.4 2.1 0.0 68 2.1 W 7 11 4 6 - - 0.0
19/01:30am 6.7 2.7 0.4 64 2.5 WSW 11 19 6 10 - - 0.0
19/01:00am 5.8 2.2 0.8 70 2.0 SW 9 15 5 8 - - 0.0
19/12:30am 6.0 2.9 1.2 71 1.9 SSW 7 11 4 6 - - 0.0
19/12:00am 5.7 2.6 1.4 74 1.7 SW 7 11 4 6 - - 0.0
 
Date/Time
EST
Temp
°C
App
Temp
°C
Dew
Point
°C
Rel
Hum
%
Delta-T
°C
Wind Press
QNH
hPa
Press
MSL
hPa
Rain since
9am
mm
Dir  Spd
km/h
Gust
km/h
Spd
kts
Gust
kts
18/11:30pm 5.8 2.7 1.3 73 1.8 SW 7 9 4 5 - - 0.0
18/11:00pm 5.7 2.7 1.1 72 1.8 SW 6 7 3 4 - - 0.0

Other formats

Comma delimited format used in spreadsheet applications
http://www.bom.gov.au/fwo/IDN60801/IDN60801.95684.axf

JavaScript Object Notation format (JSON) in row-major order
http://www.bom.gov.au/fwo/IDN60801/IDN60801.95684.json

Data quality

Most of these data are generated automatically and are frequently updated. Quality checks on data are not normally performed. It is possible for incorrect values to appear. Refer to information at About Latest Weather Observations and please check the disclaimer before using these data.